sensor_id;sensor_type;location;lat;lon;timestamp;pressure;altitude;pressure_sealevel;temperature;humidity
57801;BME280;43627;42.728;23.256;2023-05-03T00:01:07;95272.13;;;11.69;45.45
57801;BME280;43627;42.728;23.256;2023-05-03T00:03:34;95276.66;;;11.72;45.55
57801;BME280;43627;42.728;23.256;2023-05-03T00:06:12;95295.00;;;11.81;45.49
57801;BME280;43627;42.728;23.256;2023-05-03T00:08:39;95288.94;;;11.77;45.32
57801;BME280;43627;42.728;23.256;2023-05-03T00:11:07;95279.53;;;11.78;45.33
57801;BME280;43627;42.728;23.256;2023-05-03T00:13:34;95285.13;;;11.74;45.27
57801;BME280;43627;42.728;23.256;2023-05-03T00:16:02;95288.63;;;11.74;45.41
57801;BME280;43627;42.728;23.256;2023-05-03T00:18:28;95274.13;;;11.59;45.54
57801;BME280;43627;42.728;23.256;2023-05-03T00:20:57;95287.47;;;11.66;45.42
57801;BME280;43627;42.728;23.256;2023-05-03T00:23:25;95286.56;;;11.60;45.57
57801;BME280;43627;42.728;23.256;2023-05-03T00:25:57;95280.06;;;11.58;45.57
57801;BME280;43627;42.728;23.256;2023-05-03T00:28:25;95297.31;;;11.64;46.14
57801;BME280;43627;42.728;23.256;2023-05-03T00:30:52;95270.03;;;11.55;45.96
57801;BME280;43627;42.728;23.256;2023-05-03T00:33:19;95286.84;;;11.62;45.87
57801;BME280;43627;42.728;23.256;2023-05-03T00:35:46;95278.19;;;11.64;46.14
57801;BME280;43627;42.728;23.256;2023-05-03T00:38:12;95267.91;;;11.59;46.14
57801;BME280;43627;42.728;23.256;2023-05-03T00:40:42;95282.31;;;11.59;46.26
57801;BME280;43627;42.728;23.256;2023-05-03T00:43:12;95277.00;;;11.56;46.67
57801;BME280;43627;42.728;23.256;2023-05-03T00:45:39;95286.09;;;11.62;47.07
57801;BME280;43627;42.728;23.256;2023-05-03T00:48:06;95277.31;;;11.58;47.14
57801;BME280;43627;42.728;23.256;2023-05-03T00:50:34;95281.13;;;11.51;47.20
57801;BME280;43627;42.728;23.256;2023-05-03T00:53:02;95277.81;;;11.47;47.33
57801;BME280;43627;42.728;23.256;2023-05-03T00:55:29;95280.22;;;11.45;47.37
57801;BME280;43627;42.728;23.256;2023-05-03T00:57:58;95291.16;;;11.45;47.48
57801;BME280;43627;42.728;23.256;2023-05-03T01:00:25;95276.00;;;11.44;47.74
57801;BME280;43627;42.728;23.256;2023-05-03T01:02:52;95284.66;;;11.42;47.49
57801;BME280;43627;42.728;23.256;2023-05-03T01:05:20;95290.59;;;11.32;47.46
57801;BME280;43627;42.728;23.256;2023-05-03T01:08:08;95295.13;;;11.35;47.92
57801;BME280;43627;42.728;23.256;2023-05-03T01:10:47;95297.09;;;11.34;47.85
57801;BME280;43627;42.728;23.256;2023-05-03T01:16:20;95278.94;;;11.22;47.69
57801;BME280;43627;42.728;23.256;2023-05-03T01:18:51;95278.47;;;11.24;47.79
57801;BME280;43627;42.728;23.256;2023-05-03T01:21:20;95269.34;;;11.27;47.71
57801;BME280;43627;42.728;23.256;2023-05-03T01:24:17;95262.38;;;11.26;47.26
57801;BME280;43627;42.728;23.256;2023-05-03T01:26:47;95272.72;;;11.22;47.07
57801;BME280;43627;42.728;23.256;2023-05-03T01:29:14;95273.03;;;11.14;47.32
57801;BME280;43627;42.728;23.256;2023-05-03T01:31:50;95258.19;;;10.97;47.63
57801;BME280;43627;42.728;23.256;2023-05-03T01:34:37;95267.00;;;10.92;47.42
57801;BME280;43627;42.728;23.256;2023-05-03T01:37:08;95263.66;;;10.97;47.81
57801;BME280;43627;42.728;23.256;2023-05-03T01:39:43;95248.81;;;10.89;47.46
57801;BME280;43627;42.728;23.256;2023-05-03T01:42:13;95260.34;;;10.84;47.85
57801;BME280;43627;42.728;23.256;2023-05-03T01:44:41;95269.88;;;10.88;47.96
57801;BME280;43627;42.728;23.256;2023-05-03T01:47:09;95247.75;;;10.77;48.03
57801;BME280;43627;42.728;23.256;2023-05-03T01:49:36;95264.00;;;10.81;48.10
57801;BME280;43627;42.728;23.256;2023-05-03T01:52:03;95257.47;;;10.78;48.33
57801;BME280;43627;42.728;23.256;2023-05-03T01:54:29;95258.38;;;10.75;48.10
57801;BME280;43627;42.728;23.256;2023-05-03T01:56:56;95252.00;;;10.69;48.41
57801;BME280;43627;42.728;23.256;2023-05-03T01:59:23;95265.81;;;10.75;48.28
57801;BME280;43627;42.728;23.256;2023-05-03T02:01:49;95249.28;;;10.69;48.61
57801;BME280;43627;42.728;23.256;2023-05-03T02:04:16;95227.63;;;10.47;48.44
57801;BME280;43627;42.728;23.256;2023-05-03T02:06:43;95228.69;;;10.50;48.78
57801;BME280;43627;42.728;23.256;2023-05-03T02:09:09;95232.34;;;10.47;48.62
57801;BME280;43627;42.728;23.256;2023-05-03T02:11:36;95225.81;;;10.44;49.08
57801;BME280;43627;42.728;23.256;2023-05-03T02:14:03;95220.38;;;10.44;49.15
57801;BME280;43627;42.728;23.256;2023-05-03T02:16:29;95210.81;;;10.40;49.42
57801;BME280;43627;42.728;23.256;2023-05-03T02:18:56;95213.84;;;10.33;49.72
57801;BME280;43627;42.728;23.256;2023-05-03T02:21:25;95216.44;;;10.27;49.90
57801;BME280;43627;42.728;23.256;2023-05-03T02:23:52;95213.25;;;10.28;49.86
57801;BME280;43627;42.728;23.256;2023-05-03T02:26:19;95222.63;;;10.27;49.79
57801;BME280;43627;42.728;23.256;2023-05-03T02:28:46;95230.97;;;10.24;50.19
57801;BME280;43627;42.728;23.256;2023-05-03T02:31:12;95208.22;;;10.18;50.58
57801;BME280;43627;42.728;23.256;2023-05-03T02:33:39;95226.28;;;10.24;50.51
57801;BME280;43627;42.728;23.256;2023-05-03T02:36:06;95215.94;;;10.19;50.32
57801;BME280;43627;42.728;23.256;2023-05-03T02:38:33;95222.91;;;10.20;50.67
57801;BME280;43627;42.728;23.256;2023-05-03T02:41:00;95216.69;;;10.20;50.57
57801;BME280;43627;42.728;23.256;2023-05-03T02:43:26;95205.31;;;10.12;50.62
57801;BME280;43627;42.728;23.256;2023-05-03T02:45:53;95217.91;;;10.19;50.57
57801;BME280;43627;42.728;23.256;2023-05-03T02:48:20;95232.75;;;10.18;50.16
57801;BME280;43627;42.728;23.256;2023-05-03T02:50:46;95227.13;;;10.21;50.52
57801;BME280;43627;42.728;23.256;2023-05-03T02:53:13;95244.09;;;10.16;50.99
57801;BME280;43627;42.728;23.256;2023-05-03T02:55:40;95210.94;;;10.18;50.55
57801;BME280;43627;42.728;23.256;2023-05-03T02:58:06;95224.72;;;10.14;50.99
57801;BME280;43627;42.728;23.256;2023-05-03T03:00:33;95218.94;;;10.12;51.00
57801;BME280;43627;42.728;23.256;2023-05-03T03:02:59;95217.72;;;10.13;51.06
57801;BME280;43627;42.728;23.256;2023-05-03T03:05:26;95223.03;;;10.08;50.98
57801;BME280;43627;42.728;23.256;2023-05-03T03:07:53;95232.56;;;10.12;50.72
57801;BME280;43627;42.728;23.256;2023-05-03T03:10:20;95237.56;;;10.14;50.96
57801;BME280;43627;42.728;23.256;2023-05-03T03:12:46;95243.16;;;10.10;50.77
57801;BME280;43627;42.728;23.256;2023-05-03T03:15:13;95241.50;;;10.13;50.90
57801;BME280;43627;42.728;23.256;2023-05-03T03:17:40;95239.97;;;10.12;51.05
57801;BME280;43627;42.728;23.256;2023-05-03T03:20:08;95243.31;;;10.07;51.53
57801;BME280;43627;42.728;23.256;2023-05-03T03:22:39;95233.91;;;9.98;51.67
57801;BME280;43627;42.728;23.256;2023-05-03T03:25:07;95252.25;;;10.07;51.74
57801;BME280;43627;42.728;23.256;2023-05-03T03:27:33;95259.66;;;10.07;52.04
57801;BME280;43627;42.728;23.256;2023-05-03T03:30:02;95251.19;;;10.05;51.81
57801;BME280;43627;42.728;23.256;2023-05-03T03:32:30;95244.81;;;9.98;52.15
57801;BME280;43627;42.728;23.256;2023-05-03T03:34:57;95254.34;;;10.03;52.31
57801;BME280;43627;42.728;23.256;2023-05-03T03:37:24;95268.41;;;10.01;52.57
57801;BME280;43627;42.728;23.256;2023-05-03T03:39:50;95267.97;;;10.03;52.84
57801;BME280;43627;42.728;23.256;2023-05-03T03:42:17;95279.47;;;9.98;53.07
57801;BME280;43627;42.728;23.256;2023-05-03T03:44:45;95269.63;;;10.00;53.25
57801;BME280;43627;42.728;23.256;2023-05-03T03:47:12;95278.09;;;10.02;53.02
57801;BME280;43627;42.728;23.256;2023-05-03T03:49:39;95281.16;;;10.05;53.49
57801;BME280;43627;42.728;23.256;2023-05-03T03:52:08;95280.06;;;10.02;53.08
57801;BME280;43627;42.728;23.256;2023-05-03T03:54:35;95281.91;;;10.05;53.46
57801;BME280;43627;42.728;23.256;2023-05-03T03:57:02;95268.41;;;9.92;53.37
57801;BME280;43627;42.728;23.256;2023-05-03T03:59:29;95294.91;;;10.01;53.63
57801;BME280;43627;42.728;23.256;2023-05-03T04:01:55;95298.56;;;10.07;53.38
57801;BME280;43627;42.728;23.256;2023-05-03T04:04:22;95280.69;;;10.06;53.63
57801;BME280;43627;42.728;23.256;2023-05-03T04:06:49;95291.00;;;10.11;53.71
57801;BME280;43627;42.728;23.256;2023-05-03T04:09:16;95289.03;;;10.12;53.79
57801;BME280;43627;42.728;23.256;2023-05-03T04:11:44;95287.78;;;10.03;53.68
57801;BME280;43627;42.728;23.256;2023-05-03T04:14:11;95303.56;;;10.09;53.87
57801;BME280;43627;42.728;23.256;2023-05-03T04:16:38;95291.16;;;10.08;53.62
57801;BME280;43627;42.728;23.256;2023-05-03T04:19:04;95306.47;;;10.14;53.45
57801;BME280;43627;42.728;23.256;2023-05-03T04:21:31;95292.69;;;10.18;53.12
57801;BME280;43627;42.728;23.256;2023-05-03T04:23:58;95297.69;;;10.19;52.78
57801;BME280;43627;42.728;23.256;2023-05-03T04:26:26;95317.41;;;10.23;52.69
57801;BME280;43627;42.728;23.256;2023-05-03T04:28:58;95300.38;;;10.10;52.74
57801;BME280;43627;42.728;23.256;2023-05-03T04:31:25;95313.28;;;10.19;52.78
57801;BME280;43627;42.728;23.256;2023-05-03T04:33:52;95329.84;;;10.24;53.02
57801;BME280;43627;42.728;23.256;2023-05-03T04:36:19;95328.19;;;10.36;52.85
57801;BME280;43627;42.728;23.256;2023-05-03T04:38:51;95337.28;;;10.33;52.66
57801;BME280;43627;42.728;23.256;2023-05-03T04:41:18;95337.41;;;10.29;52.42
57801;BME280;43627;42.728;23.256;2023-05-03T04:43:46;95345.84;;;10.22;52.90
57801;BME280;43627;42.728;23.256;2023-05-03T04:46:12;95350.41;;;10.25;53.59
57801;BME280;43627;42.728;23.256;2023-05-03T04:48:39;95351.94;;;10.26;53.54
57801;BME280;43627;42.728;23.256;2023-05-03T04:51:06;95358.91;;;10.27;53.70
57801;BME280;43627;42.728;23.256;2023-05-03T04:53:33;95358.91;;;10.27;53.55
57801;BME280;43627;42.728;23.256;2023-05-03T04:56:00;95354.44;;;10.21;53.29
57801;BME280;43627;42.728;23.256;2023-05-03T04:58:26;95362.31;;;10.19;54.10
57801;BME280;43627;42.728;23.256;2023-05-03T05:00:53;95348.22;;;10.11;54.63
57801;BME280;43627;42.728;23.256;2023-05-03T05:03:20;95363.66;;;10.05;54.77
57801;BME280;43627;42.728;23.256;2023-05-03T05:05:47;95361.50;;;10.00;55.48
57801;BME280;43627;42.728;23.256;2023-05-03T05:08:13;95368.75;;;10.03;56.09
57801;BME280;43627;42.728;23.256;2023-05-03T05:10:40;95388.31;;;10.11;57.99
57801;BME280;43627;42.728;23.256;2023-05-03T05:13:07;95371.94;;;10.01;56.33
57801;BME280;43627;42.728;23.256;2023-05-03T05:15:34;95384.03;;;10.00;56.88
57801;BME280;43627;42.728;23.256;2023-05-03T05:18:01;95381.31;;;10.00;55.98
57801;BME280;43627;42.728;23.256;2023-05-03T05:20:27;95385.06;;;9.94;58.87
57801;BME280;43627;42.728;23.256;2023-05-03T05:22:54;95392.63;;;9.90;62.33
57801;BME280;43627;42.728;23.256;2023-05-03T05:25:21;95408.81;;;9.93;64.85
57801;BME280;43627;42.728;23.256;2023-05-03T05:27:48;95404.94;;;9.72;65.95
57801;BME280;43627;42.728;23.256;2023-05-03T05:30:14;95402.09;;;9.54;67.51
57801;BME280;43627;42.728;23.256;2023-05-03T05:32:42;95378.88;;;9.40;69.28
57801;BME280;43627;42.728;23.256;2023-05-03T05:35:09;95400.28;;;9.51;72.88
57801;BME280;43627;42.728;23.256;2023-05-03T05:37:36;95407.78;;;9.47;74.45
57801;BME280;43627;42.728;23.256;2023-05-03T05:40:03;95414.84;;;9.57;74.25
57801;BME280;43627;42.728;23.256;2023-05-03T05:42:31;95401.47;;;9.50;73.89
57801;BME280;43627;42.728;23.256;2023-05-03T05:44:58;95375.66;;;9.33;74.12
57801;BME280;43627;42.728;23.256;2023-05-03T05:47:25;95398.22;;;9.64;73.63
57801;BME280;43627;42.728;23.256;2023-05-03T05:49:52;95392.34;;;9.66;73.05
57801;BME280;43627;42.728;23.256;2023-05-03T05:52:19;95398.34;;;9.83;72.01
57801;BME280;43627;42.728;23.256;2023-05-03T05:54:46;95391.63;;;9.74;69.00
57801;BME280;43627;42.728;23.256;2023-05-03T05:57:13;95388.09;;;9.87;70.18
57801;BME280;43627;42.728;23.256;2023-05-03T05:59:40;95371.28;;;9.88;69.59
57801;BME280;43627;42.728;23.256;2023-05-03T06:02:14;95382.44;;;10.12;66.60
57801;BME280;43627;42.728;23.256;2023-05-03T06:04:44;95397.75;;;10.19;66.84
57801;BME280;43627;42.728;23.256;2023-05-03T06:07:13;95371.97;;;10.11;65.57
57801;BME280;43627;42.728;23.256;2023-05-03T06:09:39;95381.34;;;10.10;66.08
57801;BME280;43627;42.728;23.256;2023-05-03T06:12:07;95379.53;;;10.07;67.37
57801;BME280;43627;42.728;23.256;2023-05-03T06:14:33;95344.13;;;9.76;65.53
57801;BME280;43627;42.728;23.256;2023-05-03T06:17:00;95372.84;;;9.98;69.92
57801;BME280;43627;42.728;23.256;2023-05-03T06:19:27;95398.81;;;10.21;71.57
57801;BME280;43627;42.728;23.256;2023-05-03T06:21:54;95372.72;;;10.11;70.12
57801;BME280;43627;42.728;23.256;2023-05-03T06:24:21;95396.00;;;10.25;70.34
57801;BME280;43627;42.728;23.256;2023-05-03T06:26:48;95340.31;;;9.95;69.64
57801;BME280;43627;42.728;23.256;2023-05-03T06:29:15;95317.50;;;9.70;68.95
57801;BME280;43627;42.728;23.256;2023-05-03T06:31:41;95383.06;;;10.16;67.79
57801;BME280;43627;42.728;23.256;2023-05-03T06:34:09;95380.41;;;10.25;69.48
57801;BME280;43627;42.728;23.256;2023-05-03T06:36:36;95389.38;;;10.35;65.35
57801;BME280;43627;42.728;23.256;2023-05-03T06:39:03;95311.81;;;9.87;66.16
57801;BME280;43627;42.728;23.256;2023-05-03T06:41:30;95322.44;;;10.03;67.24
57801;BME280;43627;42.728;23.256;2023-05-03T06:43:58;95354.34;;;10.24;67.45
57801;BME280;43627;42.728;23.256;2023-05-03T06:46:26;95361.78;;;10.24;66.19
57801;BME280;43627;42.728;23.256;2023-05-03T06:48:53;95367.84;;;10.37;65.39
57801;BME280;43627;42.728;23.256;2023-05-03T06:51:24;95343.03;;;10.35;65.14
57801;BME280;43627;42.728;23.256;2023-05-03T06:53:54;95354.56;;;10.48;68.53
57801;BME280;43627;42.728;23.256;2023-05-03T06:56:22;95355.75;;;10.47;66.83
57801;BME280;43627;42.728;23.256;2023-05-03T06:58:49;95349.25;;;10.45;68.40
57801;BME280;43627;42.728;23.256;2023-05-03T07:01:16;95360.31;;;10.59;67.97
57801;BME280;43627;42.728;23.256;2023-05-03T07:03:44;95338.06;;;10.43;66.40
57801;BME280;43627;42.728;23.256;2023-05-03T07:06:11;95333.66;;;10.45;67.94
57801;BME280;43627;42.728;23.256;2023-05-03T07:08:38;95355.47;;;10.54;67.85
57801;BME280;43627;42.728;23.256;2023-05-03T07:11:05;95350.06;;;10.73;65.76
57801;BME280;43627;42.728;23.256;2023-05-03T07:13:31;95341.41;;;10.83;63.94
57801;BME280;43627;42.728;23.256;2023-05-03T07:15:59;95339.63;;;10.80;63.26
57801;BME280;43627;42.728;23.256;2023-05-03T07:18:29;95350.94;;;10.79;62.99
57801;BME280;43627;42.728;23.256;2023-05-03T07:20:55;95358.56;;;10.93;63.21
57801;BME280;43627;42.728;23.256;2023-05-03T07:23:22;95355.38;;;11.13;62.38
57801;BME280;43627;42.728;23.256;2023-05-03T07:25:49;95340.03;;;11.06;62.13
57801;BME280;43627;42.728;23.256;2023-05-03T07:28:16;95364.47;;;11.19;62.56
57801;BME280;43627;42.728;23.256;2023-05-03T07:30:42;95274.13;;;10.90;62.48
57801;BME280;43627;42.728;23.256;2023-05-03T07:33:09;95353.97;;;11.18;63.42
57801;BME280;43627;42.728;23.256;2023-05-03T07:35:36;95362.97;;;11.09;63.09
57801;BME280;43627;42.728;23.256;2023-05-03T07:38:03;95379.63;;;11.20;63.54
57801;BME280;43627;42.728;23.256;2023-05-03T07:40:30;95344.91;;;10.93;64.29
57801;BME280;43627;42.728;23.256;2023-05-03T07:42:59;95350.66;;;11.13;64.59
57801;BME280;43627;42.728;23.256;2023-05-03T07:45:26;95364.75;;;11.30;64.09
57801;BME280;43627;42.728;23.256;2023-05-03T07:47:54;95371.16;;;11.18;65.04
57801;BME280;43627;42.728;23.256;2023-05-03T07:50:22;95348.09;;;11.10;66.56
57801;BME280;43627;42.728;23.256;2023-05-03T07:52:49;95351.25;;;11.18;65.67
57801;BME280;43627;42.728;23.256;2023-05-03T07:55:18;95370.22;;;11.03;66.32
57801;BME280;43627;42.728;23.256;2023-05-03T07:57:45;95362.34;;;11.14;67.19
57801;BME280;43627;42.728;23.256;2023-05-03T08:00:13;95353.69;;;10.97;67.04
57801;BME280;43627;42.728;23.256;2023-05-03T08:02:40;95329.75;;;10.92;67.01
57801;BME280;43627;42.728;23.256;2023-05-03T08:05:08;95352.34;;;11.11;68.59
57801;BME280;43627;42.728;23.256;2023-05-03T08:07:36;95342.47;;;11.04;69.52
57801;BME280;43627;42.728;23.256;2023-05-03T08:10:02;95361.88;;;11.15;70.09
57801;BME280;43627;42.728;23.256;2023-05-03T08:12:30;95361.41;;;11.35;68.95
57801;BME280;43627;42.728;23.256;2023-05-03T08:14:56;95379.31;;;11.27;66.63
57801;BME280;43627;42.728;23.256;2023-05-03T08:17:23;95370.81;;;11.34;67.66
57801;BME280;43627;42.728;23.256;2023-05-03T08:19:50;95375.69;;;11.30;68.23
57801;BME280;43627;42.728;23.256;2023-05-03T08:22:17;95375.38;;;11.47;68.22
57801;BME280;43627;42.728;23.256;2023-05-03T08:24:44;95367.75;;;11.60;66.87
57801;BME280;43627;42.728;23.256;2023-05-03T08:27:11;95335.06;;;11.74;66.22
57801;BME280;43627;42.728;23.256;2023-05-03T08:29:38;95367.41;;;11.85;66.61
57801;BME280;43627;42.728;23.256;2023-05-03T08:32:04;95370.81;;;12.13;65.01
57801;BME280;43627;42.728;23.256;2023-05-03T08:34:31;95373.50;;;12.22;63.69
57801;BME280;43627;42.728;23.256;2023-05-03T08:36:58;95359.44;;;12.06;64.26
57801;BME280;43627;42.728;23.256;2023-05-03T08:39:25;95373.84;;;12.39;63.74
57801;BME280;43627;42.728;23.256;2023-05-03T08:41:53;95377.97;;;12.92;62.13
57801;BME280;43627;42.728;23.256;2023-05-03T08:44:21;95377.66;;;13.37;58.97
57801;BME280;43627;42.728;23.256;2023-05-03T08:46:49;95374.34;;;13.63;57.97
57801;BME280;43627;42.728;23.256;2023-05-03T08:49:16;95362.16;;;13.64;57.35
57801;BME280;43627;42.728;23.256;2023-05-03T08:51:44;95355.84;;;13.87;57.11
57801;BME280;43627;42.728;23.256;2023-05-03T08:54:15;95369.50;;;14.02;55.83
57801;BME280;43627;42.728;23.256;2023-05-03T08:56:43;95379.34;;;14.23;56.02
57801;BME280;43627;42.728;23.256;2023-05-03T08:59:13;95374.34;;;14.22;55.78
57801;BME280;43627;42.728;23.256;2023-05-03T09:01:42;95370.94;;;13.83;55.41
57801;BME280;43627;42.728;23.256;2023-05-03T09:04:10;95361.38;;;13.19;57.90
57801;BME280;43627;42.728;23.256;2023-05-03T09:06:37;95359.50;;;13.40;58.15
57801;BME280;43627;42.728;23.256;2023-05-03T09:09:05;95372.16;;;13.37;58.86
57801;BME280;43627;42.728;23.256;2023-05-03T09:11:35;95376.72;;;13.55;57.93
57801;BME280;43627;42.728;23.256;2023-05-03T09:14:12;95384.06;;;13.64;57.49
57801;BME280;43627;42.728;23.256;2023-05-03T09:16:40;95373.00;;;13.29;59.34
57801;BME280;43627;42.728;23.256;2023-05-03T09:19:08;95346.53;;;13.26;59.46
57801;BME280;43627;42.728;23.256;2023-05-03T09:21:42;95262.81;;;12.80;60.77
57801;BME280;43627;42.728;23.256;2023-05-03T09:24:12;95342.63;;;13.56;58.91
57801;BME280;43627;42.728;23.256;2023-05-03T09:26:40;95347.16;;;13.74;58.44
57801;BME280;43627;42.728;23.256;2023-05-03T09:29:07;95344.00;;;13.96;56.95
57801;BME280;43627;42.728;23.256;2023-05-03T09:31:35;95343.81;;;13.99;57.50
57801;BME280;43627;42.728;23.256;2023-05-03T09:34:20;95339.56;;;14.48;55.16
57801;BME280;43627;42.728;23.256;2023-05-03T09:36:47;95310.72;;;14.38;55.36
57801;BME280;43627;42.728;23.256;2023-05-03T09:39:17;95322.84;;;14.32;55.89
57801;BME280;43627;42.728;23.256;2023-05-03T09:41:45;95248.72;;;13.91;55.87
57801;BME280;43627;42.728;23.256;2023-05-03T09:44:12;95312.47;;;14.56;54.77
57801;BME280;43627;42.728;23.256;2023-05-03T09:46:39;95313.56;;;15.05;54.33
57801;BME280;43627;42.728;23.256;2023-05-03T09:49:25;95296.44;;;15.41;52.76
57801;BME280;43627;42.728;23.256;2023-05-03T09:51:53;95299.75;;;15.71;51.72
57801;BME280;43627;42.728;23.256;2023-05-03T09:54:21;95300.44;;;15.98;50.58
57801;BME280;43627;42.728;23.256;2023-05-03T09:56:52;95295.31;;;16.11;50.24
57801;BME280;43627;42.728;23.256;2023-05-03T09:59:21;95304.91;;;16.27;49.74
57801;BME280;43627;42.728;23.256;2023-05-03T10:01:52;95294.03;;;16.49;49.28
57801;BME280;43627;42.728;23.256;2023-05-03T10:04:24;95300.34;;;16.67;48.54
57801;BME280;43627;42.728;23.256;2023-05-03T10:06:58;95277.41;;;16.33;49.19
57801;BME280;43627;42.728;23.256;2023-05-03T10:09:41;95301.75;;;16.45;48.64
57801;BME280;43627;42.728;23.256;2023-05-03T10:12:09;95229.41;;;16.34;49.44
57801;BME280;43627;42.728;23.256;2023-05-03T10:14:46;95243.94;;;16.45;48.48
57801;BME280;43627;42.728;23.256;2023-05-03T10:17:20;95281.78;;;16.50;48.93
57801;BME280;43627;42.728;23.256;2023-05-03T10:20:19;95287.22;;;16.39;48.78
57801;BME280;43627;42.728;23.256;2023-05-03T10:23:07;95280.13;;;16.27;49.64
57801;BME280;43627;42.728;23.256;2023-05-03T10:25:38;95257.41;;;16.32;49.66
57801;BME280;43627;42.728;23.256;2023-05-03T10:28:07;95278.59;;;15.83;51.05
57801;BME280;43627;42.728;23.256;2023-05-03T10:30:37;95266.88;;;15.88;50.70
57801;BME280;43627;42.728;23.256;2023-05-03T10:33:30;95266.38;;;16.70;50.08
57801;BME280;43627;42.728;23.256;2023-05-03T10:36:03;95252.66;;;16.38;50.08
57801;BME280;43627;42.728;23.256;2023-05-03T10:38:31;95212.06;;;15.74;50.44
57801;BME280;43627;42.728;23.256;2023-05-03T10:40:58;95205.25;;;15.69;51.13
57801;BME280;43627;42.728;23.256;2023-05-03T10:46:03;95247.16;;;16.38;50.51
57801;BME280;43627;42.728;23.256;2023-05-03T10:48:31;95260.94;;;16.92;49.34
57801;BME280;43627;42.728;23.256;2023-05-03T10:53:53;95237.03;;;16.67;50.00
57801;BME280;43627;42.728;23.256;2023-05-03T10:56:20;95255.59;;;16.72;49.92
57801;BME280;43627;42.728;23.256;2023-05-03T10:58:48;95216.25;;;16.60;49.26
57801;BME280;43627;42.728;23.256;2023-05-03T11:01:17;95259.69;;;17.04;49.52
57801;BME280;43627;42.728;23.256;2023-05-03T11:03:56;95249.09;;;16.75;50.01
57801;BME280;43627;42.728;23.256;2023-05-03T11:09:04;95224.13;;;16.90;48.75
57801;BME280;43627;42.728;23.256;2023-05-03T11:11:33;95269.41;;;16.83;49.78
57801;BME280;43627;42.728;23.256;2023-05-03T11:14:00;95210.16;;;16.39;50.05
57801;BME280;43627;42.728;23.256;2023-05-03T11:16:27;95237.59;;;16.28;51.30
57801;BME280;43627;42.728;23.256;2023-05-03T11:18:55;95239.44;;;16.42;51.54
57801;BME280;43627;42.728;23.256;2023-05-03T11:21:22;95199.63;;;16.38;50.37
57801;BME280;43627;42.728;23.256;2023-05-03T11:23:49;95219.59;;;16.21;50.87
57801;BME280;43627;42.728;23.256;2023-05-03T11:26:19;95206.94;;;16.46;50.48
57801;BME280;43627;42.728;23.256;2023-05-03T11:28:52;95243.69;;;17.08;50.43
57801;BME280;43627;42.728;23.256;2023-05-03T11:31:20;95190.81;;;16.82;49.89
57801;BME280;43627;42.728;23.256;2023-05-03T11:33:48;95228.66;;;16.98;50.30
57801;BME280;43627;42.728;23.256;2023-05-03T11:36:16;95212.34;;;16.95;50.31
57801;BME280;43627;42.728;23.256;2023-05-03T11:38:44;95206.75;;;16.67;50.73
57801;BME280;43627;42.728;23.256;2023-05-03T11:41:13;95157.09;;;16.33;51.54
57801;BME280;43627;42.728;23.256;2023-05-03T11:43:44;95178.53;;;16.18;52.20
57801;BME280;43627;42.728;23.256;2023-05-03T11:46:17;95162.50;;;16.11;52.28
57801;BME280;43627;42.728;23.256;2023-05-03T11:48:45;95212.94;;;16.45;52.47
57801;BME280;43627;42.728;23.256;2023-05-03T11:51:12;95184.75;;;16.07;53.58
57801;BME280;43627;42.728;23.256;2023-05-03T11:53:40;95174.06;;;16.26;53.28
57801;BME280;43627;42.728;23.256;2023-05-03T11:56:12;95190.31;;;16.95;51.83
57801;BME280;43627;42.728;23.256;2023-05-03T11:58:51;95194.81;;;16.92;51.97
57801;BME280;43627;42.728;23.256;2023-05-03T12:01:19;95149.13;;;16.41;52.63
57801;BME280;43627;42.728;23.256;2023-05-03T12:03:57;95188.88;;;16.34;53.96
57801;BME280;43627;42.728;23.256;2023-05-03T12:06:25;95158.56;;;16.28;54.11
57801;BME280;43627;42.728;23.256;2023-05-03T12:08:55;95106.16;;;15.89;54.48
57801;BME280;43627;42.728;23.256;2023-05-03T12:11:23;95170.69;;;16.53;54.18
57801;BME280;43627;42.728;23.256;2023-05-03T12:13:57;95150.19;;;16.66;53.60
57801;BME280;43627;42.728;23.256;2023-05-03T12:16:25;95156.66;;;16.51;54.07
57801;BME280;43627;42.728;23.256;2023-05-03T12:18:54;95177.00;;;16.71;52.92
57801;BME280;43627;42.728;23.256;2023-05-03T12:21:42;95174.06;;;16.26;53.72
57801;BME280;43627;42.728;23.256;2023-05-03T12:24:29;95139.19;;;15.95;54.40
57801;BME280;43627;42.728;23.256;2023-05-03T12:26:59;95162.63;;;15.85;55.22
57801;BME280;43627;42.728;23.256;2023-05-03T12:29:28;95165.88;;;15.52;56.96
57801;BME280;43627;42.728;23.256;2023-05-03T12:32:00;95179.72;;;15.63;57.85
57801;BME280;43627;42.728;23.256;2023-05-03T12:34:29;95183.97;;;15.32;59.25
57801;BME280;43627;42.728;23.256;2023-05-03T12:37:02;95153.75;;;15.01;60.86
57801;BME280;43627;42.728;23.256;2023-05-03T12:39:32;95164.47;;;14.99;61.41
57801;BME280;43627;42.728;23.256;2023-05-03T12:41:59;95162.50;;;14.99;61.89
57801;BME280;43627;42.728;23.256;2023-05-03T12:44:31;95177.75;;;15.06;62.04
57801;BME280;43627;42.728;23.256;2023-05-03T12:47:01;95175.34;;;14.88;62.21
57801;BME280;43627;42.728;23.256;2023-05-03T12:49:28;95093.03;;;14.15;62.65
57801;BME280;43627;42.728;23.256;2023-05-03T12:51:56;95167.75;;;14.77;65.04
57801;BME280;43627;42.728;23.256;2023-05-03T12:54:28;95116.78;;;14.44;66.25
57801;BME280;43627;42.728;23.256;2023-05-03T12:57:00;95148.00;;;14.47;67.21
57801;BME280;43627;42.728;23.256;2023-05-03T12:59:35;95170.72;;;14.73;66.69
57801;BME280;43627;42.728;23.256;2023-05-03T13:02:11;95133.03;;;14.48;67.45
57801;BME280;43627;42.728;23.256;2023-05-03T13:04:41;95098.47;;;14.36;67.71
57801;BME280;43627;42.728;23.256;2023-05-03T13:07:25;95159.91;;;14.64;67.91
57801;BME280;43627;42.728;23.256;2023-05-03T13:09:56;95116.72;;;14.18;70.20